sensor_id;sensor_type;location;lat;lon;timestamp;P1;durP1;ratioP1;P2;durP2;ratioP2
26654;SDS011;14278;50.784;4.630;2022-08-01T00:01:03;2.47;;;0.85;;
26654;SDS011;14278;50.784;4.630;2022-08-01T00:03:29;0.50;;;0.50;;
26654;SDS011;14278;50.784;4.630;2022-08-01T00:05:54;1.02;;;0.70;;
26654;SDS011;14278;50.784;4.630;2022-08-01T00:08:20;0.70;;;0.68;;
26654;SDS011;14278;50.784;4.630;2022-08-01T00:10:46;0.52;;;0.52;;
26654;SDS011;14278;50.784;4.630;2022-08-01T00:13:12;0.90;;;0.90;;
26654;SDS011;14278;50.784;4.630;2022-08-01T00:15:42;0.73;;;0.55;;
26654;SDS011;14278;50.784;4.630;2022-08-01T00:18:07;0.50;;;0.50;;
26654;SDS011;14278;50.784;4.630;2022-08-01T00:20:33;0.70;;;0.45;;
26654;SDS011;14278;50.784;4.630;2022-08-01T00:22:59;0.60;;;0.60;;
26654;SDS011;14278;50.784;4.630;2022-08-01T00:25:27;0.50;;;0.50;;
26654;SDS011;14278;50.784;4.630;2022-08-01T00:27:53;0.70;;;0.70;;
26654;SDS011;14278;50.784;4.630;2022-08-01T00:30:19;0.60;;;0.60;;
26654;SDS011;14278;50.784;4.630;2022-08-01T00:32:45;0.60;;;0.60;;
26654;SDS011;14278;50.784;4.630;2022-08-01T00:35:11;0.50;;;0.50;;
26654;SDS011;14278;50.784;4.630;2022-08-01T00:37:38;1.10;;;0.65;;
26654;SDS011;14278;50.784;4.630;2022-08-01T00:40:04;2.00;;;1.33;;
26654;SDS011;14278;50.784;4.630;2022-08-01T00:42:31;0.73;;;0.73;;
26654;SDS011;14278;50.784;4.630;2022-08-01T00:44:56;0.65;;;0.65;;
26654;SDS011;14278;50.784;4.630;2022-08-01T00:47:23;2.13;;;1.58;;
26654;SDS011;14278;50.784;4.630;2022-08-01T00:49:48;1.10;;;1.02;;
26654;SDS011;14278;50.784;4.630;2022-08-01T00:52:14;0.80;;;0.80;;
26654;SDS011;14278;50.784;4.630;2022-08-01T00:54:40;0.80;;;0.80;;
26654;SDS011;14278;50.784;4.630;2022-08-01T00:57:06;1.25;;;1.15;;
26654;SDS011;14278;50.784;4.630;2022-08-01T00:59:32;4.45;;;1.13;;
26654;SDS011;14278;50.784;4.630;2022-08-01T01:01:59;1.65;;;1.30;;
26654;SDS011;14278;50.784;4.630;2022-08-01T01:04:25;1.05;;;0.95;;
26654;SDS011;14278;50.784;4.630;2022-08-01T01:14:38;1.33;;;1.00;;
26654;SDS011;14278;50.784;4.630;2022-08-01T01:17:12;1.40;;;1.25;;
26654;SDS011;14278;50.784;4.630;2022-08-01T01:19:45;1.20;;;1.10;;
26654;SDS011;14278;50.784;4.630;2022-08-01T01:22:25;1.63;;;0.93;;
26654;SDS011;14278;50.784;4.630;2022-08-01T01:27:57;0.93;;;0.93;;
26654;SDS011;14278;50.784;4.630;2022-08-01T01:30:31;2.08;;;1.13;;
26654;SDS011;14278;50.784;4.630;2022-08-01T01:33:01;1.02;;;0.90;;
26654;SDS011;14278;50.784;4.630;2022-08-01T01:35:37;1.08;;;1.02;;
26654;SDS011;14278;50.784;4.630;2022-08-01T01:38:17;1.23;;;1.13;;
26654;SDS011;14278;50.784;4.630;2022-08-01T01:40:46;1.30;;;1.20;;
26654;SDS011;14278;50.784;4.630;2022-08-01T01:43:14;1.52;;;1.42;;
26654;SDS011;14278;50.784;4.630;2022-08-01T01:45:42;2.72;;;0.80;;
26654;SDS011;14278;50.784;4.630;2022-08-01T01:48:12;1.73;;;1.55;;
26654;SDS011;14278;50.784;4.630;2022-08-01T01:50:39;3.50;;;1.75;;
26654;SDS011;14278;50.784;4.630;2022-08-01T01:53:07;6.28;;;1.23;;
26654;SDS011;14278;50.784;4.630;2022-08-01T01:55:35;1.38;;;1.17;;
26654;SDS011;14278;50.784;4.630;2022-08-01T01:58:04;1.05;;;1.00;;
26654;SDS011;14278;50.784;4.630;2022-08-01T02:00:32;4.38;;;1.20;;
26654;SDS011;14278;50.784;4.630;2022-08-01T02:03:03;1.15;;;1.05;;
26654;SDS011;14278;50.784;4.630;2022-08-01T02:05:32;1.27;;;1.02;;
26654;SDS011;14278;50.784;4.630;2022-08-01T02:08:00;1.08;;;0.98;;
26654;SDS011;14278;50.784;4.630;2022-08-01T02:10:28;1.00;;;0.90;;
26654;SDS011;14278;50.784;4.630;2022-08-01T02:12:56;0.88;;;0.88;;
26654;SDS011;14278;50.784;4.630;2022-08-01T02:15:24;1.38;;;1.02;;
26654;SDS011;14278;50.784;4.630;2022-08-01T02:17:53;1.17;;;1.08;;
26654;SDS011;14278;50.784;4.630;2022-08-01T02:20:21;2.15;;;1.27;;
26654;SDS011;14278;50.784;4.630;2022-08-01T02:22:50;4.25;;;1.13;;
26654;SDS011;14278;50.784;4.630;2022-08-01T02:28:07;1.90;;;1.20;;
26654;SDS011;14278;50.784;4.630;2022-08-01T02:30:39;1.17;;;1.08;;
26654;SDS011;14278;50.784;4.630;2022-08-01T02:35:42;1.27;;;1.20;;
26654;SDS011;14278;50.784;4.630;2022-08-01T02:38:11;4.78;;;2.20;;
26654;SDS011;14278;50.784;4.630;2022-08-01T02:40:40;2.00;;;1.90;;
26654;SDS011;14278;50.784;4.630;2022-08-01T02:43:09;2.17;;;1.98;;
26654;SDS011;14278;50.784;4.630;2022-08-01T02:45:37;2.50;;;1.90;;
26654;SDS011;14278;50.784;4.630;2022-08-01T02:48:09;2.13;;;1.88;;
26654;SDS011;14278;50.784;4.630;2022-08-01T02:50:38;4.45;;;2.42;;
26654;SDS011;14278;50.784;4.630;2022-08-01T02:53:07;2.90;;;1.85;;
26654;SDS011;14278;50.784;4.630;2022-08-01T02:55:35;3.50;;;2.92;;
26654;SDS011;14278;50.784;4.630;2022-08-01T02:58:10;2.38;;;2.17;;
26654;SDS011;14278;50.784;4.630;2022-08-01T03:00:39;4.07;;;2.53;;
26654;SDS011;14278;50.784;4.630;2022-08-01T03:03:06;3.08;;;2.03;;
26654;SDS011;14278;50.784;4.630;2022-08-01T03:05:33;3.78;;;2.60;;
26654;SDS011;14278;50.784;4.630;2022-08-01T03:08:00;3.03;;;2.35;;
26654;SDS011;14278;50.784;4.630;2022-08-01T03:10:27;3.10;;;2.80;;
26654;SDS011;14278;50.784;4.630;2022-08-01T03:12:55;6.63;;;3.08;;
26654;SDS011;14278;50.784;4.630;2022-08-01T03:15:22;3.95;;;3.05;;
26654;SDS011;14278;50.784;4.630;2022-08-01T03:17:50;4.50;;;2.65;;
26654;SDS011;14278;50.784;4.630;2022-08-01T03:20:18;3.83;;;3.00;;
26654;SDS011;14278;50.784;4.630;2022-08-01T03:22:45;4.13;;;2.85;;
26654;SDS011;14278;50.784;4.630;2022-08-01T03:25:14;5.53;;;2.95;;
26654;SDS011;14278;50.784;4.630;2022-08-01T03:27:42;4.53;;;2.55;;
26654;SDS011;14278;50.784;4.630;2022-08-01T03:30:11;3.20;;;2.25;;
26654;SDS011;14278;50.784;4.630;2022-08-01T03:32:37;2.90;;;1.88;;
26654;SDS011;14278;50.784;4.630;2022-08-01T03:35:04;2.50;;;2.08;;
26654;SDS011;14278;50.784;4.630;2022-08-01T03:37:43;2.65;;;2.33;;
26654;SDS011;14278;50.784;4.630;2022-08-01T03:40:13;2.88;;;2.53;;
26654;SDS011;14278;50.784;4.630;2022-08-01T03:42:50;4.13;;;2.90;;
26654;SDS011;14278;50.784;4.630;2022-08-01T03:45:22;3.83;;;2.40;;
26654;SDS011;14278;50.784;4.630;2022-08-01T03:47:57;1.50;;;1.40;;
26654;SDS011;14278;50.784;4.630;2022-08-01T03:50:26;1.70;;;1.60;;
26654;SDS011;14278;50.784;4.630;2022-08-01T03:52:53;2.13;;;1.92;;
26654;SDS011;14278;50.784;4.630;2022-08-01T03:55:21;1.50;;;1.38;;
26654;SDS011;14278;50.784;4.630;2022-08-01T03:57:48;1.80;;;1.67;;
26654;SDS011;14278;50.784;4.630;2022-08-01T04:00:16;1.65;;;1.45;;
26654;SDS011;14278;50.784;4.630;2022-08-01T04:02:44;2.03;;;1.50;;
26654;SDS011;14278;50.784;4.630;2022-08-01T04:05:14;7.82;;;2.33;;
26654;SDS011;14278;50.784;4.630;2022-08-01T04:07:44;4.68;;;3.30;;
26654;SDS011;14278;50.784;4.630;2022-08-01T04:10:12;3.47;;;3.03;;
26654;SDS011;14278;50.784;4.630;2022-08-01T04:12:38;3.55;;;3.03;;
26654;SDS011;14278;50.784;4.630;2022-08-01T04:15:05;3.08;;;2.83;;
26654;SDS011;14278;50.784;4.630;2022-08-01T04:17:31;2.75;;;2.45;;
26654;SDS011;14278;50.784;4.630;2022-08-01T04:19:57;8.70;;;3.20;;
26654;SDS011;14278;50.784;4.630;2022-08-01T04:22:23;5.43;;;2.97;;
26654;SDS011;14278;50.784;4.630;2022-08-01T04:24:50;3.97;;;2.90;;
26654;SDS011;14278;50.784;4.630;2022-08-01T04:27:19;3.63;;;3.17;;
26654;SDS011;14278;50.784;4.630;2022-08-01T04:29:58;6.03;;;3.20;;
26654;SDS011;14278;50.784;4.630;2022-08-01T04:32:26;4.15;;;2.58;;
26654;SDS011;14278;50.784;4.630;2022-08-01T04:34:55;3.22;;;2.92;;
26654;SDS011;14278;50.784;4.630;2022-08-01T04:37:23;5.28;;;2.95;;
26654;SDS011;14278;50.784;4.630;2022-08-01T04:39:51;3.00;;;2.70;;
26654;SDS011;14278;50.784;4.630;2022-08-01T04:42:19;3.70;;;3.15;;
26654;SDS011;14278;50.784;4.630;2022-08-01T04:44:45;4.25;;;2.53;;
26654;SDS011;14278;50.784;4.630;2022-08-01T04:47:11;4.00;;;2.85;;
26654;SDS011;14278;50.784;4.630;2022-08-01T04:49:38;5.20;;;2.75;;
26654;SDS011;14278;50.784;4.630;2022-08-01T04:52:06;8.90;;;3.65;;
26654;SDS011;14278;50.784;4.630;2022-08-01T04:54:33;7.00;;;3.63;;
26654;SDS011;14278;50.784;4.630;2022-08-01T04:57:02;3.80;;;2.70;;
26654;SDS011;14278;50.784;4.630;2022-08-01T04:59:29;6.90;;;3.05;;
26654;SDS011;14278;50.784;4.630;2022-08-01T05:02:17;2.65;;;2.35;;
26654;SDS011;14278;50.784;4.630;2022-08-01T05:04:44;3.45;;;2.70;;
26654;SDS011;14278;50.784;4.630;2022-08-01T05:07:11;2.92;;;2.63;;
26654;SDS011;14278;50.784;4.630;2022-08-01T05:09:38;3.10;;;2.83;;
26654;SDS011;14278;50.784;4.630;2022-08-01T05:12:06;3.83;;;2.28;;
26654;SDS011;14278;50.784;4.630;2022-08-01T05:14:33;4.72;;;3.20;;
26654;SDS011;14278;50.784;4.630;2022-08-01T05:17:00;3.17;;;2.58;;
26654;SDS011;14278;50.784;4.630;2022-08-01T05:19:32;5.13;;;3.28;;
26654;SDS011;14278;50.784;4.630;2022-08-01T05:21:59;3.60;;;2.50;;
26654;SDS011;14278;50.784;4.630;2022-08-01T05:24:28;4.35;;;3.20;;
26654;SDS011;14278;50.784;4.630;2022-08-01T05:26:55;5.63;;;3.60;;
26654;SDS011;14278;50.784;4.630;2022-08-01T05:29:22;4.93;;;3.13;;
26654;SDS011;14278;50.784;4.630;2022-08-01T05:31:47;2.60;;;2.35;;
26654;SDS011;14278;50.784;4.630;2022-08-01T05:34:13;2.60;;;2.40;;
26654;SDS011;14278;50.784;4.630;2022-08-01T05:36:39;3.40;;;2.50;;
26654;SDS011;14278;50.784;4.630;2022-08-01T05:39:05;3.20;;;2.80;;
26654;SDS011;14278;50.784;4.630;2022-08-01T05:41:31;4.03;;;3.13;;
26654;SDS011;14278;50.784;4.630;2022-08-01T05:43:57;3.55;;;2.90;;
26654;SDS011;14278;50.784;4.630;2022-08-01T05:46:23;2.33;;;2.10;;
26654;SDS011;14278;50.784;4.630;2022-08-01T05:48:49;5.88;;;3.22;;
26654;SDS011;14278;50.784;4.630;2022-08-01T05:51:14;3.00;;;2.40;;
26654;SDS011;14278;50.784;4.630;2022-08-01T05:53:41;2.72;;;2.22;;
26654;SDS011;14278;50.784;4.630;2022-08-01T05:56:06;4.50;;;3.20;;
26654;SDS011;14278;50.784;4.630;2022-08-01T05:58:32;2.35;;;2.05;;
26654;SDS011;14278;50.784;4.630;2022-08-01T06:00:58;3.40;;;2.95;;
26654;SDS011;14278;50.784;4.630;2022-08-01T06:03:24;4.97;;;3.13;;
26654;SDS011;14278;50.784;4.630;2022-08-01T06:05:53;4.68;;;2.92;;
26654;SDS011;14278;50.784;4.630;2022-08-01T06:08:19;6.97;;;3.00;;
26654;SDS011;14278;50.784;4.630;2022-08-01T06:10:45;4.60;;;3.05;;
26654;SDS011;14278;50.784;4.630;2022-08-01T06:13:11;3.70;;;3.40;;
26654;SDS011;14278;50.784;4.630;2022-08-01T06:15:36;2.80;;;2.17;;
26654;SDS011;14278;50.784;4.630;2022-08-01T06:18:03;2.03;;;1.92;;
26654;SDS011;14278;50.784;4.630;2022-08-01T06:20:29;4.53;;;3.17;;
26654;SDS011;14278;50.784;4.630;2022-08-01T06:22:55;3.05;;;2.75;;
26654;SDS011;14278;50.784;4.630;2022-08-01T06:25:21;2.63;;;2.13;;
26654;SDS011;14278;50.784;4.630;2022-08-01T06:27:47;3.50;;;2.63;;
26654;SDS011;14278;50.784;4.630;2022-08-01T06:30:15;2.53;;;2.33;;
26654;SDS011;14278;50.784;4.630;2022-08-01T06:32:40;6.88;;;2.53;;
26654;SDS011;14278;50.784;4.630;2022-08-01T06:35:06;4.07;;;2.53;;
26654;SDS011;14278;50.784;4.630;2022-08-01T06:37:32;3.17;;;2.25;;
26654;SDS011;14278;50.784;4.630;2022-08-01T06:40:05;4.18;;;3.08;;
26654;SDS011;14278;50.784;4.630;2022-08-01T06:42:35;4.57;;;2.95;;
26654;SDS011;14278;50.784;4.630;2022-08-01T06:45:05;3.95;;;3.00;;
26654;SDS011;14278;50.784;4.630;2022-08-01T06:47:32;2.72;;;2.50;;
26654;SDS011;14278;50.784;4.630;2022-08-01T06:49:58;3.47;;;3.17;;
26654;SDS011;14278;50.784;4.630;2022-08-01T06:52:24;2.63;;;2.42;;
26654;SDS011;14278;50.784;4.630;2022-08-01T06:54:51;3.08;;;2.60;;
26654;SDS011;14278;50.784;4.630;2022-08-01T06:57:17;2.25;;;2.05;;
26654;SDS011;14278;50.784;4.630;2022-08-01T06:59:43;3.50;;;3.03;;
26654;SDS011;14278;50.784;4.630;2022-08-01T07:02:09;3.05;;;2.30;;
26654;SDS011;14278;50.784;4.630;2022-08-01T07:04:34;3.65;;;3.15;;
26654;SDS011;14278;50.784;4.630;2022-08-01T07:07:01;3.65;;;2.80;;
26654;SDS011;14278;50.784;4.630;2022-08-01T07:09:27;2.60;;;2.40;;
26654;SDS011;14278;50.784;4.630;2022-08-01T07:11:53;3.20;;;2.92;;
26654;SDS011;14278;50.784;4.630;2022-08-01T07:14:22;5.55;;;3.25;;
26654;SDS011;14278;50.784;4.630;2022-08-01T07:16:48;3.30;;;2.70;;
26654;SDS011;14278;50.784;4.630;2022-08-01T07:19:15;2.85;;;2.63;;
26654;SDS011;14278;50.784;4.630;2022-08-01T07:21:42;4.07;;;2.47;;
26654;SDS011;14278;50.784;4.630;2022-08-01T07:24:08;3.17;;;2.47;;
26654;SDS011;14278;50.784;4.630;2022-08-01T07:26:35;3.05;;;2.35;;
26654;SDS011;14278;50.784;4.630;2022-08-01T07:29:01;2.70;;;2.45;;
26654;SDS011;14278;50.784;4.630;2022-08-01T07:31:28;2.65;;;2.45;;
26654;SDS011;14278;50.784;4.630;2022-08-01T07:33:54;1.10;;;1.08;;
26654;SDS011;14278;50.784;4.630;2022-08-01T07:36:19;1.48;;;1.38;;
26654;SDS011;14278;50.784;4.630;2022-08-01T07:38:46;2.10;;;1.38;;
26654;SDS011;14278;50.784;4.630;2022-08-01T07:41:12;1.63;;;1.27;;
26654;SDS011;14278;50.784;4.630;2022-08-01T07:43:39;1.50;;;1.40;;
26654;SDS011;14278;50.784;4.630;2022-08-01T07:46:05;1.85;;;1.52;;
26654;SDS011;14278;50.784;4.630;2022-08-01T07:48:31;1.17;;;1.08;;
26654;SDS011;14278;50.784;4.630;2022-08-01T07:50:57;1.08;;;0.98;;
26654;SDS011;14278;50.784;4.630;2022-08-01T07:53:23;1.20;;;1.05;;
26654;SDS011;14278;50.784;4.630;2022-08-01T07:55:50;1.55;;;1.05;;
26654;SDS011;14278;50.784;4.630;2022-08-01T07:58:15;0.90;;;0.90;;
26654;SDS011;14278;50.784;4.630;2022-08-01T08:00:41;1.23;;;1.10;;
26654;SDS011;14278;50.784;4.630;2022-08-01T08:03:07;1.27;;;1.10;;
26654;SDS011;14278;50.784;4.630;2022-08-01T08:05:33;1.58;;;1.10;;
26654;SDS011;14278;50.784;4.630;2022-08-01T08:08:06;1.00;;;0.90;;
26654;SDS011;14278;50.784;4.630;2022-08-01T08:10:33;1.00;;;1.00;;
26654;SDS011;14278;50.784;4.630;2022-08-01T08:12:59;0.55;;;0.55;;
26654;SDS011;14278;50.784;4.630;2022-08-01T08:15:26;2.70;;;1.52;;
26654;SDS011;14278;50.784;4.630;2022-08-01T08:17:52;4.13;;;1.48;;
26654;SDS011;14278;50.784;4.630;2022-08-01T08:20:18;1.20;;;1.10;;
26654;SDS011;14278;50.784;4.630;2022-08-01T08:22:49;1.25;;;1.05;;
26654;SDS011;14278;50.784;4.630;2022-08-01T08:25:19;0.88;;;0.88;;
26654;SDS011;14278;50.784;4.630;2022-08-01T08:27:47;1.30;;;1.20;;
26654;SDS011;14278;50.784;4.630;2022-08-01T08:30:13;2.28;;;1.27;;
26654;SDS011;14278;50.784;4.630;2022-08-01T08:32:40;1.60;;;1.45;;
26654;SDS011;14278;50.784;4.630;2022-08-01T08:35:06;1.38;;;1.27;;
26654;SDS011;14278;50.784;4.630;2022-08-01T08:37:32;2.47;;;1.52;;
26654;SDS011;14278;50.784;4.630;2022-08-01T08:39:59;1.42;;;1.33;;
26654;SDS011;14278;50.784;4.630;2022-08-01T08:42:25;1.30;;;1.20;;
26654;SDS011;14278;50.784;4.630;2022-08-01T08:44:52;1.63;;;1.40;;
26654;SDS011;14278;50.784;4.630;2022-08-01T08:47:20;0.82;;;0.82;;
26654;SDS011;14278;50.784;4.630;2022-08-01T08:49:47;1.90;;;1.58;;
26654;SDS011;14278;50.784;4.630;2022-08-01T08:52:15;1.17;;;1.08;;
26654;SDS011;14278;50.784;4.630;2022-08-01T08:54:44;1.92;;;1.42;;
26654;SDS011;14278;50.784;4.630;2022-08-01T08:57:12;1.30;;;1.20;;
26654;SDS011;14278;50.784;4.630;2022-08-01T08:59:39;1.35;;;1.25;;
26654;SDS011;14278;50.784;4.630;2022-08-01T09:02:06;1.15;;;1.08;;
26654;SDS011;14278;50.784;4.630;2022-08-01T09:04:34;1.30;;;1.20;;
26654;SDS011;14278;50.784;4.630;2022-08-01T09:07:01;3.00;;;1.67;;
26654;SDS011;14278;50.784;4.630;2022-08-01T09:09:29;1.45;;;1.35;;
26654;SDS011;14278;50.784;4.630;2022-08-01T09:11:56;1.70;;;1.60;;
26654;SDS011;14278;50.784;4.630;2022-08-01T09:14:22;1.52;;;1.42;;
26654;SDS011;14278;50.784;4.630;2022-08-01T09:17:25;0.93;;;0.93;;
26654;SDS011;14278;50.784;4.630;2022-08-01T09:19:48;1.17;;;1.17;;
26654;SDS011;14278;50.784;4.630;2022-08-01T09:22:20;1.83;;;1.58;;
26654;SDS011;14278;50.784;4.630;2022-08-01T09:25:05;0.93;;;0.93;;
26654;SDS011;14278;50.784;4.630;2022-08-01T09:27:34;1.88;;;1.77;;
26654;SDS011;14278;50.784;4.630;2022-08-01T09:30:13;1.30;;;1.20;;
26654;SDS011;14278;50.784;4.630;2022-08-01T09:32:56;1.45;;;1.33;;
26654;SDS011;14278;50.784;4.630;2022-08-01T09:35:26;1.13;;;1.13;;
26654;SDS011;14278;50.784;4.630;2022-08-01T09:41:00;1.67;;;1.10;;
26654;SDS011;14278;50.784;4.630;2022-08-01T09:43:26;0.77;;;0.77;;
26654;SDS011;14278;50.784;4.630;2022-08-01T09:45:55;1.13;;;1.02;;
26654;SDS011;14278;50.784;4.630;2022-08-01T09:48:22;1.02;;;1.02;;
26654;SDS011;14278;50.784;4.630;2022-08-01T09:50:49;1.33;;;1.23;;
26654;SDS011;14278;50.784;4.630;2022-08-01T09:53:16;1.95;;;1.10;;
26654;SDS011;14278;50.784;4.630;2022-08-01T09:55:43;1.30;;;1.20;;
26654;SDS011;14278;50.784;4.630;2022-08-01T09:58:12;0.90;;;0.90;;
26654;SDS011;14278;50.784;4.630;2022-08-01T10:00:39;0.95;;;0.95;;
26654;SDS011;14278;50.784;4.630;2022-08-01T10:03:18;1.10;;;1.00;;
26654;SDS011;14278;50.784;4.630;2022-08-01T10:05:45;1.40;;;1.30;;
26654;SDS011;14278;50.784;4.630;2022-08-01T10:08:12;0.85;;;0.85;;
26654;SDS011;14278;50.784;4.630;2022-08-01T10:10:39;1.50;;;1.40;;
26654;SDS011;14278;50.784;4.630;2022-08-01T10:13:05;1.40;;;1.30;;
26654;SDS011;14278;50.784;4.630;2022-08-01T10:15:32;1.20;;;1.10;;
26654;SDS011;14278;50.784;4.630;2022-08-01T10:18:00;0.90;;;0.90;;
26654;SDS011;14278;50.784;4.630;2022-08-01T10:20:30;1.95;;;0.98;;
26654;SDS011;14278;50.784;4.630;2022-08-01T10:22:58;1.08;;;0.93;;
26654;SDS011;14278;50.784;4.630;2022-08-01T10:25:33;1.42;;;1.33;;
26654;SDS011;14278;50.784;4.630;2022-08-01T10:28:01;1.17;;;1.10;;
26654;SDS011;14278;50.784;4.630;2022-08-01T10:30:34;1.63;;;1.52;;
26654;SDS011;14278;50.784;4.630;2022-08-01T10:33:00;0.77;;;0.77;;
26654;SDS011;14278;50.784;4.630;2022-08-01T10:35:26;1.00;;;1.00;;
26654;SDS011;14278;50.784;4.630;2022-08-01T10:37:53;0.80;;;0.80;;
26654;SDS011;14278;50.784;4.630;2022-08-01T10:40:22;0.90;;;0.90;;
26654;SDS011;14278;50.784;4.630;2022-08-01T10:42:48;1.92;;;1.02;;
26654;SDS011;14278;50.784;4.630;2022-08-01T10:45:16;0.88;;;0.82;;
26654;SDS011;14278;50.784;4.630;2022-08-01T10:50:47;1.23;;;1.13;;
26654;SDS011;14278;50.784;4.630;2022-08-01T10:53:15;1.63;;;1.52;;
26654;SDS011;14278;50.784;4.630;2022-08-01T10:55:50;3.47;;;1.38;;
26654;SDS011;14278;50.784;4.630;2022-08-01T11:04:07;1.40;;;1.30;;
26654;SDS011;14278;50.784;4.630;2022-08-01T11:06:36;1.00;;;0.90;;
26654;SDS011;14278;50.784;4.630;2022-08-01T11:11:56;1.15;;;1.02;;
26654;SDS011;14278;50.784;4.630;2022-08-01T11:17:37;0.50;;;0.50;;
26654;SDS011;14278;50.784;4.630;2022-08-01T11:20:14;1.23;;;1.13;;
26654;SDS011;14278;50.784;4.630;2022-08-01T11:25:26;0.85;;;0.80;;
26654;SDS011;14278;50.784;4.630;2022-08-01T11:30:46;0.47;;;0.47;;
26654;SDS011;14278;50.784;4.630;2022-08-01T11:33:13;0.93;;;0.93;;
26654;SDS011;14278;50.784;4.630;2022-08-01T11:41:24;0.77;;;0.77;;
26654;SDS011;14278;50.784;4.630;2022-08-01T11:44:07;0.43;;;0.43;;
26654;SDS011;14278;50.784;4.630;2022-08-01T11:57:20;0.50;;;0.50;;
26654;SDS011;14278;50.784;4.630;2022-08-01T11:59:48;0.60;;;0.60;;
26654;SDS011;14278;50.784;4.630;2022-08-01T12:02:20;0.70;;;0.52;;
26654;SDS011;14278;50.784;4.630;2022-08-01T12:04:58;1.05;;;0.63;;
26654;SDS011;14278;50.784;4.630;2022-08-01T12:07:29;1.17;;;0.95;;
26654;SDS011;14278;50.784;4.630;2022-08-01T12:10:01;0.63;;;0.57;;
26654;SDS011;14278;50.784;4.630;2022-08-01T12:12:30;0.60;;;0.60;;
26654;SDS011;14278;50.784;4.630;2022-08-01T12:14:57;0.77;;;0.77;;
26654;SDS011;14278;50.784;4.630;2022-08-01T12:17:35;0.73;;;0.73;;
26654;SDS011;14278;50.784;4.630;2022-08-01T12:20:03;0.70;;;0.70;;
26654;SDS011;14278;50.784;4.630;2022-08-01T12:22:30;0.63;;;0.63;;
26654;SDS011;14278;50.784;4.630;2022-08-01T12:25:04;0.88;;;0.85;;
26654;SDS011;14278;50.784;4.630;2022-08-01T12:27:34;0.50;;;0.50;;
26654;SDS011;14278;50.784;4.630;2022-08-01T12:30:02;0.35;;;0.35;;
26654;SDS011;14278;50.784;4.630;2022-08-01T12:32:31;0.43;;;0.43;;
26654;SDS011;14278;50.784;4.630;2022-08-01T12:37:52;0.30;;;0.30;;
26654;SDS011;14278;50.784;4.630;2022-08-01T12:40:23;0.50;;;0.50;;
26654;SDS011;14278;50.784;4.630;2022-08-01T12:42:52;0.52;;;0.45;;
26654;SDS011;14278;50.784;4.630;2022-08-01T12:47:51;0.22;;;0.22;;
26654;SDS011;14278;50.784;4.630;2022-08-01T12:50:19;4.25;;;0.55;;
26654;SDS011;14278;50.784;4.630;2022-08-01T12:52:48;0.20;;;0.20;;
26654;SDS011;14278;50.784;4.630;2022-08-01T12:55:18;0.30;;;0.20;;
26654;SDS011;14278;50.784;4.630;2022-08-01T12:57:46;0.47;;;0.30;;
26654;SDS011;14278;50.784;4.630;2022-08-01T13:02:49;0.30;;;0.30;;
26654;SDS011;14278;50.784;4.630;2022-08-01T13:05:25;0.17;;;0.17;;
26654;SDS011;14278;50.784;4.630;2022-08-01T13:07:51;0.30;;;0.20;;
26654;SDS011;14278;50.784;4.630;2022-08-01T13:10:27;0.13;;;0.13;;
26654;SDS011;14278;50.784;4.630;2022-08-01T13:12:55;0.20;;;0.20;;
26654;SDS011;14278;50.784;4.630;2022-08-01T13:17:51;0.28;;;0.20;;
26654;SDS011;14278;50.784;4.630;2022-08-01T13:20:21;0.43;;;0.28;;
26654;SDS011;14278;50.784;4.630;2022-08-01T13:22:48;0.30;;;0.30;;
26654;SDS011;14278;50.784;4.630;2022-08-01T13:25:15;0.47;;;0.40;;
26654;SDS011;14278;50.784;4.630;2022-08-01T13:27:42;0.40;;;0.40;;
26654;SDS011;14278;50.784;4.630;2022-08-01T13:30:12;0.20;;;0.20;;
26654;SDS011;14278;50.784;4.630;2022-08-01T13:32:42;0.93;;;0.50;;
26654;SDS011;14278;50.784;4.630;2022-08-01T13:35:12;0.32;;;0.30;;
26654;SDS011;14278;50.784;4.630;2022-08-01T13:37:41;0.45;;;0.45;;
26654;SDS011;14278;50.784;4.630;2022-08-01T13:40:08;0.30;;;0.30;;
26654;SDS011;14278;50.784;4.630;2022-08-01T13:42:35;0.40;;;0.40;;
26654;SDS011;14278;50.784;4.630;2022-08-01T13:45:01;0.30;;;0.30;;
26654;SDS011;14278;50.784;4.630;2022-08-01T13:47:28;0.30;;;0.30;;
26654;SDS011;14278;50.784;4.630;2022-08-01T13:49:54;0.40;;;0.40;;
26654;SDS011;14278;50.784;4.630;2022-08-01T13:52:25;0.73;;;0.50;;
26654;SDS011;14278;50.784;4.630;2022-08-01T13:54:51;0.52;;;0.43;;
26654;SDS011;14278;50.784;4.630;2022-08-01T13:57:17;0.52;;;0.40;;
26654;SDS011;14278;50.784;4.630;2022-08-01T13:59:43;0.50;;;0.50;;
26654;SDS011;14278;50.784;4.630;2022-08-01T14:02:09;0.32;;;0.32;;
26654;SDS011;14278;50.784;4.630;2022-08-01T14:04:35;0.30;;;0.28;;
26654;SDS011;14278;50.784;4.630;2022-08-01T14:07:02;1.65;;;0.40;;
26654;SDS011;14278;50.784;4.630;2022-08-01T14:09:27;0.47;;;0.47;;
26654;SDS011;14278;50.784;4.630;2022-08-01T14:11:53;0.43;;;0.43;;
26654;SDS011;14278;50.784;4.630;2022-08-01T14:14:19;0.40;;;0.40;;
26654;SDS011;14278;50.784;4.630;2022-08-01T14:16:45;0.43;;;0.43;;
26654;SDS011;14278;50.784;4.630;2022-08-01T14:19:11;0.22;;;0.22;;
26654;SDS011;14278;50.784;4.630;2022-08-01T14:21:37;0.30;;;0.30;;
26654;SDS011;14278;50.784;4.630;2022-08-01T14:24:03;0.30;;;0.30;;
26654;SDS011;14278;50.784;4.630;2022-08-01T14:26:29;0.20;;;0.20;;
26654;SDS011;14278;50.784;4.630;2022-08-01T14:28:56;0.45;;;0.40;;
26654;SDS011;14278;50.784;4.630;2022-08-01T14:31:22;0.25;;;0.25;;
26654;SDS011;14278;50.784;4.630;2022-08-01T14:33:48;0.13;;;0.13;;
26654;SDS011;14278;50.784;4.630;2022-08-01T14:36:14;0.57;;;0.40;;
26654;SDS011;14278;50.784;4.630;2022-08-01T14:38:40;0.52;;;0.28;;
26654;SDS011;14278;50.784;4.630;2022-08-01T14:41:06;0.43;;;0.30;;
26654;SDS011;14278;50.784;4.630;2022-08-01T14:43:32;0.35;;;0.35;;
26654;SDS011;14278;50.784;4.630;2022-08-01T14:45:58;0.30;;;0.30;;
26654;SDS011;14278;50.784;4.630;2022-08-01T14:48:24;0.90;;;0.80;;
26654;SDS011;14278;50.784;4.630;2022-08-01T14:50:50;0.50;;;0.38;;
26654;SDS011;14278;50.784;4.630;2022-08-01T14:53:16;0.40;;;0.40;;
26654;SDS011;14278;50.784;4.630;2022-08-01T14:55:43;0.40;;;0.30;;
26654;SDS011;14278;50.784;4.630;2022-08-01T14:58:09;0.75;;;0.65;;
26654;SDS011;14278;50.784;4.630;2022-08-01T15:00:35;0.38;;;0.38;;
26654;SDS011;14278;50.784;4.630;2022-08-01T15:03:00;0.25;;;0.25;;
26654;SDS011;14278;50.784;4.630;2022-08-01T15:05:26;0.40;;;0.40;;
26654;SDS011;14278;50.784;4.630;2022-08-01T15:07:54;0.50;;;0.50;;
26654;SDS011;14278;50.784;4.630;2022-08-01T15:10:20;0.85;;;0.57;;
26654;SDS011;14278;50.784;4.630;2022-08-01T15:12:46;2.53;;;0.40;;
26654;SDS011;14278;50.784;4.630;2022-08-01T15:15:12;0.40;;;0.40;;
26654;SDS011;14278;50.784;4.630;2022-08-01T15:17:38;0.63;;;0.60;;
26654;SDS011;14278;50.784;4.630;2022-08-01T15:20:05;0.63;;;0.40;;
26654;SDS011;14278;50.784;4.630;2022-08-01T15:22:32;0.40;;;0.40;;
26654;SDS011;14278;50.784;4.630;2022-08-01T15:24:59;0.30;;;0.30;;
26654;SDS011;14278;50.784;4.630;2022-08-01T15:27:27;1.45;;;0.52;;
26654;SDS011;14278;50.784;4.630;2022-08-01T15:29:54;0.30;;;0.30;;
26654;SDS011;14278;50.784;4.630;2022-08-01T15:32:21;0.40;;;0.40;;
26654;SDS011;14278;50.784;4.630;2022-08-01T15:34:48;0.30;;;0.30;;
26654;SDS011;14278;50.784;4.630;2022-08-01T15:37:14;0.50;;;0.50;;
26654;SDS011;14278;50.784;4.630;2022-08-01T15:39:40;0.40;;;0.40;;
26654;SDS011;14278;50.784;4.630;2022-08-01T15:42:07;0.30;;;0.30;;
26654;SDS011;14278;50.784;4.630;2022-08-01T15:44:34;0.45;;;0.45;;
26654;SDS011;14278;50.784;4.630;2022-08-01T15:47:01;0.85;;;0.82;;
26654;SDS011;14278;50.784;4.630;2022-08-01T15:49:28;0.70;;;0.60;;
26654;SDS011;14278;50.784;4.630;2022-08-01T15:51:54;0.32;;;0.30;;
26654;SDS011;14278;50.784;4.630;2022-08-01T15:54:20;0.63;;;0.55;;
26654;SDS011;14278;50.784;4.630;2022-08-01T15:56:46;0.25;;;0.25;;
26654;SDS011;14278;50.784;4.630;2022-08-01T15:59:12;2.20;;;0.55;;